sensor_id;sensor_type;location;lat;lon;timestamp;P1;durP1;ratioP1;P2;durP2;ratioP2
54372;SDS011;40271;48.798;10.178;2022-11-15T00:02:12;4.80;;;3.05;;
54372;SDS011;40271;48.798;10.178;2022-11-15T00:04:38;5.07;;;3.15;;
54372;SDS011;40271;48.798;10.178;2022-11-15T00:07:04;6.50;;;3.22;;
54372;SDS011;40271;48.798;10.178;2022-11-15T00:09:30;7.50;;;3.67;;
54372;SDS011;40271;48.798;10.178;2022-11-15T00:11:56;4.82;;;3.20;;
54372;SDS011;40271;48.798;10.178;2022-11-15T00:14:22;5.07;;;3.20;;
54372;SDS011;40271;48.798;10.178;2022-11-15T00:16:48;6.70;;;3.25;;
54372;SDS011;40271;48.798;10.178;2022-11-15T00:19:14;5.22;;;3.33;;
54372;SDS011;40271;48.798;10.178;2022-11-15T00:21:41;5.72;;;3.38;;
54372;SDS011;40271;48.798;10.178;2022-11-15T00:24:07;5.57;;;3.55;;
54372;SDS011;40271;48.798;10.178;2022-11-15T00:26:33;17.20;;;7.70;;
54372;SDS011;40271;48.798;10.178;2022-11-15T00:28:59;20.88;;;10.75;;
54372;SDS011;40271;48.798;10.178;2022-11-15T00:31:25;21.42;;;12.80;;
54372;SDS011;40271;48.798;10.178;2022-11-15T00:33:51;14.70;;;8.18;;
54372;SDS011;40271;48.798;10.178;2022-11-15T00:36:17;30.27;;;18.83;;
54372;SDS011;40271;48.798;10.178;2022-11-15T00:38:43;56.85;;;35.03;;
54372;SDS011;40271;48.798;10.178;2022-11-15T00:41:09;53.95;;;33.55;;
54372;SDS011;40271;48.798;10.178;2022-11-15T00:43:35;45.38;;;30.27;;
54372;SDS011;40271;48.798;10.178;2022-11-15T00:46:01;46.17;;;28.63;;
54372;SDS011;40271;48.798;10.178;2022-11-15T00:48:28;46.67;;;26.77;;
54372;SDS011;40271;48.798;10.178;2022-11-15T00:50:54;37.85;;;22.00;;
54372;SDS011;40271;48.798;10.178;2022-11-15T00:53:20;22.73;;;13.93;;
54372;SDS011;40271;48.798;10.178;2022-11-15T00:55:46;33.55;;;17.45;;
54372;SDS011;40271;48.798;10.178;2022-11-15T00:58:12;38.50;;;23.20;;
54372;SDS011;40271;48.798;10.178;2022-11-15T01:00:38;37.08;;;24.48;;
54372;SDS011;40271;48.798;10.178;2022-11-15T01:03:04;30.02;;;19.98;;
54372;SDS011;40271;48.798;10.178;2022-11-15T01:05:30;20.63;;;13.02;;
54372;SDS011;40271;48.798;10.178;2022-11-15T01:07:56;26.42;;;15.93;;
54372;SDS011;40271;48.798;10.178;2022-11-15T01:10:22;20.50;;;13.23;;
54372;SDS011;40271;48.798;10.178;2022-11-15T01:12:48;24.38;;;13.65;;
54372;SDS011;40271;48.798;10.178;2022-11-15T01:15:15;51.47;;;25.23;;
54372;SDS011;40271;48.798;10.178;2022-11-15T01:17:41;52.70;;;26.55;;
54372;SDS011;40271;48.798;10.178;2022-11-15T01:20:07;55.20;;;27.45;;
54372;SDS011;40271;48.798;10.178;2022-11-15T01:22:33;46.28;;;25.95;;
54372;SDS011;40271;48.798;10.178;2022-11-15T01:24:59;47.53;;;25.58;;
54372;SDS011;40271;48.798;10.178;2022-11-15T01:27:25;44.38;;;24.95;;
54372;SDS011;40271;48.798;10.178;2022-11-15T01:29:51;49.75;;;28.85;;
54372;SDS011;40271;48.798;10.178;2022-11-15T01:32:17;54.78;;;31.45;;
54372;SDS011;40271;48.798;10.178;2022-11-15T01:34:43;52.95;;;29.08;;
54372;SDS011;40271;48.798;10.178;2022-11-15T01:37:09;51.97;;;27.50;;
54372;SDS011;40271;48.798;10.178;2022-11-15T01:39:35;46.75;;;24.23;;
54372;SDS011;40271;48.798;10.178;2022-11-15T01:42:01;35.60;;;20.05;;
54372;SDS011;40271;48.798;10.178;2022-11-15T01:46:57;13.18;;;8.38;;
54372;SDS011;40271;48.798;10.178;2022-11-15T01:49:23;9.27;;;5.85;;
54372;SDS011;40271;48.798;10.178;2022-11-15T01:51:50;8.27;;;4.78;;
54372;SDS011;40271;48.798;10.178;2022-11-15T01:54:17;19.67;;;9.75;;
54372;SDS011;40271;48.798;10.178;2022-11-15T01:56:49;40.35;;;21.45;;
54372;SDS011;40271;48.798;10.178;2022-11-15T01:59:17;43.15;;;23.85;;
54372;SDS011;40271;48.798;10.178;2022-11-15T02:01:43;45.10;;;26.10;;
54372;SDS011;40271;48.798;10.178;2022-11-15T02:04:11;56.78;;;30.40;;
54372;SDS011;40271;48.798;10.178;2022-11-15T02:06:38;46.45;;;26.92;;
54372;SDS011;40271;48.798;10.178;2022-11-15T02:09:05;48.25;;;25.98;;
54372;SDS011;40271;48.798;10.178;2022-11-15T02:11:31;47.45;;;26.30;;
54372;SDS011;40271;48.798;10.178;2022-11-15T02:13:57;44.33;;;24.20;;
54372;SDS011;40271;48.798;10.178;2022-11-15T02:16:35;35.70;;;18.90;;
54372;SDS011;40271;48.798;10.178;2022-11-15T02:19:21;18.38;;;10.05;;
54372;SDS011;40271;48.798;10.178;2022-11-15T02:32:09;11.32;;;7.13;;
54372;SDS011;40271;48.798;10.178;2022-11-15T02:34:46;12.80;;;7.50;;
54372;SDS011;40271;48.798;10.178;2022-11-15T02:40:08;18.80;;;9.48;;
54372;SDS011;40271;48.798;10.178;2022-11-15T02:42:39;17.43;;;8.60;;
54372;SDS011;40271;48.798;10.178;2022-11-15T02:45:33;15.73;;;7.60;;
54372;SDS011;40271;48.798;10.178;2022-11-15T02:48:01;11.32;;;7.53;;
54372;SDS011;40271;48.798;10.178;2022-11-15T02:50:28;15.10;;;7.60;;
54372;SDS011;40271;48.798;10.178;2022-11-15T02:52:55;16.10;;;8.52;;
54372;SDS011;40271;48.798;10.178;2022-11-15T02:55:24;16.13;;;8.27;;
54372;SDS011;40271;48.798;10.178;2022-11-15T02:57:52;16.83;;;8.70;;
54372;SDS011;40271;48.798;10.178;2022-11-15T03:00:19;16.58;;;8.60;;
54372;SDS011;40271;48.798;10.178;2022-11-15T03:05:24;11.93;;;6.53;;
54372;SDS011;40271;48.798;10.178;2022-11-15T03:12:55;11.30;;;5.47;;
54372;SDS011;40271;48.798;10.178;2022-11-15T03:17:51;12.60;;;7.10;;
54372;SDS011;40271;48.798;10.178;2022-11-15T03:20:19;13.57;;;6.82;;
54372;SDS011;40271;48.798;10.178;2022-11-15T03:22:46;13.00;;;7.13;;
54372;SDS011;40271;48.798;10.178;2022-11-15T03:25:15;10.57;;;6.10;;
54372;SDS011;40271;48.798;10.178;2022-11-15T03:27:43;14.13;;;6.60;;
54372;SDS011;40271;48.798;10.178;2022-11-15T03:30:10;11.27;;;6.72;;
54372;SDS011;40271;48.798;10.178;2022-11-15T03:32:38;11.82;;;6.38;;
54372;SDS011;40271;48.798;10.178;2022-11-15T03:37:36;11.63;;;6.20;;
54372;SDS011;40271;48.798;10.178;2022-11-15T03:40:03;11.18;;;6.03;;
54372;SDS011;40271;48.798;10.178;2022-11-15T03:42:35;9.27;;;5.80;;
54372;SDS011;40271;48.798;10.178;2022-11-15T03:45:13;12.18;;;6.68;;
54372;SDS011;40271;48.798;10.178;2022-11-15T03:47:45;12.02;;;5.45;;
54372;SDS011;40271;48.798;10.178;2022-11-15T03:50:17;11.77;;;5.90;;
54372;SDS011;40271;48.798;10.178;2022-11-15T03:52:47;9.57;;;5.10;;
54372;SDS011;40271;48.798;10.178;2022-11-15T03:55:15;10.52;;;5.90;;
54372;SDS011;40271;48.798;10.178;2022-11-15T03:57:42;11.82;;;6.13;;
54372;SDS011;40271;48.798;10.178;2022-11-15T04:00:09;11.10;;;5.97;;
54372;SDS011;40271;48.798;10.178;2022-11-15T04:02:35;9.43;;;5.32;;
54372;SDS011;40271;48.798;10.178;2022-11-15T04:05:01;8.38;;;4.90;;
54372;SDS011;40271;48.798;10.178;2022-11-15T04:07:27;9.40;;;5.70;;
54372;SDS011;40271;48.798;10.178;2022-11-15T04:09:53;9.32;;;4.90;;
54372;SDS011;40271;48.798;10.178;2022-11-15T04:12:35;7.97;;;5.45;;
54372;SDS011;40271;48.798;10.178;2022-11-15T04:17:43;9.40;;;4.88;;
54372;SDS011;40271;48.798;10.178;2022-11-15T04:20:19;9.73;;;4.75;;
54372;SDS011;40271;48.798;10.178;2022-11-15T04:23:06;11.27;;;5.68;;
54372;SDS011;40271;48.798;10.178;2022-11-15T04:25:52;11.60;;;5.53;;
54372;SDS011;40271;48.798;10.178;2022-11-15T04:28:18;8.98;;;4.82;;
54372;SDS011;40271;48.798;10.178;2022-11-15T04:30:44;8.93;;;5.45;;
54372;SDS011;40271;48.798;10.178;2022-11-15T04:33:10;8.63;;;4.82;;
54372;SDS011;40271;48.798;10.178;2022-11-15T04:35:36;9.90;;;5.22;;
54372;SDS011;40271;48.798;10.178;2022-11-15T04:38:03;9.18;;;4.97;;
54372;SDS011;40271;48.798;10.178;2022-11-15T04:40:29;9.57;;;5.05;;
54372;SDS011;40271;48.798;10.178;2022-11-15T04:42:55;9.77;;;5.15;;
54372;SDS011;40271;48.798;10.178;2022-11-15T04:45:21;11.80;;;5.88;;
54372;SDS011;40271;48.798;10.178;2022-11-15T04:47:48;14.13;;;6.05;;
54372;SDS011;40271;48.798;10.178;2022-11-15T04:50:14;15.23;;;6.60;;
54372;SDS011;40271;48.798;10.178;2022-11-15T04:52:41;10.77;;;5.65;;
54372;SDS011;40271;48.798;10.178;2022-11-15T04:55:07;9.98;;;5.38;;
54372;SDS011;40271;48.798;10.178;2022-11-15T04:57:33;8.75;;;5.25;;
54372;SDS011;40271;48.798;10.178;2022-11-15T04:59:59;8.80;;;5.03;;
54372;SDS011;40271;48.798;10.178;2022-11-15T05:02:25;8.68;;;4.63;;
54372;SDS011;40271;48.798;10.178;2022-11-15T05:05:11;9.50;;;5.18;;
54372;SDS011;40271;48.798;10.178;2022-11-15T05:07:37;9.73;;;5.00;;
54372;SDS011;40271;48.798;10.178;2022-11-15T05:10:03;10.95;;;5.18;;
54372;SDS011;40271;48.798;10.178;2022-11-15T05:12:29;9.63;;;5.30;;
54372;SDS011;40271;48.798;10.178;2022-11-15T05:14:55;8.35;;;4.72;;
54372;SDS011;40271;48.798;10.178;2022-11-15T05:17:21;12.45;;;5.45;;
54372;SDS011;40271;48.798;10.178;2022-11-15T05:19:47;11.02;;;4.95;;
54372;SDS011;40271;48.798;10.178;2022-11-15T05:22:13;8.73;;;5.35;;
54372;SDS011;40271;48.798;10.178;2022-11-15T05:24:39;8.88;;;5.05;;
54372;SDS011;40271;48.798;10.178;2022-11-15T05:27:05;7.47;;;4.95;;
54372;SDS011;40271;48.798;10.178;2022-11-15T05:29:31;9.32;;;5.05;;
54372;SDS011;40271;48.798;10.178;2022-11-15T05:31:57;8.80;;;5.13;;
54372;SDS011;40271;48.798;10.178;2022-11-15T05:34:23;8.85;;;5.38;;
54372;SDS011;40271;48.798;10.178;2022-11-15T05:36:50;9.57;;;5.38;;
54372;SDS011;40271;48.798;10.178;2022-11-15T05:39:16;9.23;;;5.40;;
54372;SDS011;40271;48.798;10.178;2022-11-15T05:41:46;10.95;;;5.57;;
54372;SDS011;40271;48.798;10.178;2022-11-15T05:44:16;10.45;;;6.32;;
54372;SDS011;40271;48.798;10.178;2022-11-15T05:46:43;8.93;;;5.45;;
54372;SDS011;40271;48.798;10.178;2022-11-15T05:49:10;9.73;;;5.60;;
54372;SDS011;40271;48.798;10.178;2022-11-15T05:51:37;9.80;;;5.93;;
54372;SDS011;40271;48.798;10.178;2022-11-15T05:54:03;12.40;;;6.47;;
54372;SDS011;40271;48.798;10.178;2022-11-15T05:56:30;8.85;;;5.95;;
54372;SDS011;40271;48.798;10.178;2022-11-15T05:58:56;12.07;;;5.97;;
54372;SDS011;40271;48.798;10.178;2022-11-15T06:01:23;12.95;;;7.00;;
54372;SDS011;40271;48.798;10.178;2022-11-15T06:03:51;11.70;;;7.32;;
54372;SDS011;40271;48.798;10.178;2022-11-15T06:06:17;13.45;;;7.07;;
54372;SDS011;40271;48.798;10.178;2022-11-15T06:08:43;12.32;;;6.78;;
54372;SDS011;40271;48.798;10.178;2022-11-15T06:11:09;11.23;;;6.30;;
54372;SDS011;40271;48.798;10.178;2022-11-15T06:13:35;10.00;;;5.82;;
54372;SDS011;40271;48.798;10.178;2022-11-15T06:16:01;11.60;;;6.10;;
54372;SDS011;40271;48.798;10.178;2022-11-15T06:18:27;13.68;;;7.20;;
54372;SDS011;40271;48.798;10.178;2022-11-15T06:20:53;15.40;;;9.10;;
54372;SDS011;40271;48.798;10.178;2022-11-15T06:23:19;12.75;;;8.00;;
54372;SDS011;40271;48.798;10.178;2022-11-15T06:25:45;10.77;;;6.80;;
54372;SDS011;40271;48.798;10.178;2022-11-15T06:28:11;13.35;;;6.22;;
54372;SDS011;40271;48.798;10.178;2022-11-15T06:30:37;8.90;;;5.22;;
54372;SDS011;40271;48.798;10.178;2022-11-15T06:33:03;10.80;;;5.30;;
54372;SDS011;40271;48.798;10.178;2022-11-15T06:35:30;9.63;;;5.10;;
54372;SDS011;40271;48.798;10.178;2022-11-15T06:38:01;7.20;;;4.57;;
54372;SDS011;40271;48.798;10.178;2022-11-15T06:40:27;13.23;;;6.65;;
54372;SDS011;40271;48.798;10.178;2022-11-15T06:42:57;10.82;;;5.53;;
54372;SDS011;40271;48.798;10.178;2022-11-15T06:45:24;10.95;;;5.38;;
54372;SDS011;40271;48.798;10.178;2022-11-15T06:47:50;14.10;;;7.40;;
54372;SDS011;40271;48.798;10.178;2022-11-15T06:50:16;11.85;;;6.82;;
54372;SDS011;40271;48.798;10.178;2022-11-15T06:52:42;12.77;;;6.68;;
54372;SDS011;40271;48.798;10.178;2022-11-15T06:55:08;14.48;;;6.97;;
54372;SDS011;40271;48.798;10.178;2022-11-15T06:57:34;11.88;;;7.82;;
54372;SDS011;40271;48.798;10.178;2022-11-15T07:00:00;11.18;;;7.47;;
54372;SDS011;40271;48.798;10.178;2022-11-15T07:02:26;13.20;;;7.32;;
54372;SDS011;40271;48.798;10.178;2022-11-15T07:04:52;14.57;;;7.38;;
54372;SDS011;40271;48.798;10.178;2022-11-15T07:07:18;12.77;;;7.22;;
54372;SDS011;40271;48.798;10.178;2022-11-15T07:09:44;15.25;;;9.18;;
54372;SDS011;40271;48.798;10.178;2022-11-15T07:12:10;18.27;;;9.68;;
54372;SDS011;40271;48.798;10.178;2022-11-15T07:14:36;16.40;;;9.25;;
54372;SDS011;40271;48.798;10.178;2022-11-15T07:17:03;13.73;;;8.05;;
54372;SDS011;40271;48.798;10.178;2022-11-15T07:19:29;16.08;;;8.07;;
54372;SDS011;40271;48.798;10.178;2022-11-15T07:21:55;16.88;;;9.02;;
54372;SDS011;40271;48.798;10.178;2022-11-15T07:24:21;18.92;;;8.98;;
54372;SDS011;40271;48.798;10.178;2022-11-15T07:26:48;17.10;;;9.73;;
54372;SDS011;40271;48.798;10.178;2022-11-15T07:29:14;16.48;;;10.02;;
54372;SDS011;40271;48.798;10.178;2022-11-15T07:31:39;18.40;;;8.98;;
54372;SDS011;40271;48.798;10.178;2022-11-15T07:34:06;19.25;;;9.90;;
54372;SDS011;40271;48.798;10.178;2022-11-15T07:36:32;24.08;;;12.48;;
54372;SDS011;40271;48.798;10.178;2022-11-15T07:38:58;22.63;;;11.18;;
54372;SDS011;40271;48.798;10.178;2022-11-15T07:41:24;16.60;;;10.30;;
54372;SDS011;40271;48.798;10.178;2022-11-15T07:43:53;17.75;;;9.68;;
54372;SDS011;40271;48.798;10.178;2022-11-15T07:46:19;18.05;;;9.60;;
54372;SDS011;40271;48.798;10.178;2022-11-15T07:48:45;25.80;;;10.90;;
54372;SDS011;40271;48.798;10.178;2022-11-15T07:51:15;24.60;;;12.48;;
54372;SDS011;40271;48.798;10.178;2022-11-15T07:53:42;22.63;;;13.07;;
54372;SDS011;40271;48.798;10.178;2022-11-15T07:56:08;22.55;;;11.68;;
54372;SDS011;40271;48.798;10.178;2022-11-15T07:58:34;21.00;;;11.43;;
54372;SDS011;40271;48.798;10.178;2022-11-15T08:01:07;19.27;;;10.93;;
54372;SDS011;40271;48.798;10.178;2022-11-15T08:03:34;19.30;;;11.93;;
54372;SDS011;40271;48.798;10.178;2022-11-15T08:06:00;22.27;;;13.15;;
54372;SDS011;40271;48.798;10.178;2022-11-15T08:08:26;23.52;;;12.85;;
54372;SDS011;40271;48.798;10.178;2022-11-15T08:10:52;19.52;;;11.95;;
54372;SDS011;40271;48.798;10.178;2022-11-15T08:13:18;27.02;;;14.57;;
54372;SDS011;40271;48.798;10.178;2022-11-15T08:15:46;29.75;;;15.25;;
54372;SDS011;40271;48.798;10.178;2022-11-15T08:18:13;29.00;;;14.52;;
54372;SDS011;40271;48.798;10.178;2022-11-15T08:20:39;24.10;;;14.57;;
54372;SDS011;40271;48.798;10.178;2022-11-15T08:23:05;26.08;;;14.48;;
54372;SDS011;40271;48.798;10.178;2022-11-15T08:25:31;30.02;;;16.02;;
54372;SDS011;40271;48.798;10.178;2022-11-15T08:28:02;26.95;;;15.30;;
54372;SDS011;40271;48.798;10.178;2022-11-15T08:30:28;22.63;;;13.32;;
54372;SDS011;40271;48.798;10.178;2022-11-15T08:32:56;26.00;;;13.10;;
54372;SDS011;40271;48.798;10.178;2022-11-15T08:35:22;22.85;;;12.32;;
54372;SDS011;40271;48.798;10.178;2022-11-15T08:37:48;19.15;;;10.63;;
54372;SDS011;40271;48.798;10.178;2022-11-15T08:40:14;20.05;;;11.15;;
54372;SDS011;40271;48.798;10.178;2022-11-15T08:42:41;22.60;;;12.10;;
54372;SDS011;40271;48.798;10.178;2022-11-15T08:45:07;24.67;;;13.27;;
54372;SDS011;40271;48.798;10.178;2022-11-15T08:47:33;22.05;;;12.52;;
54372;SDS011;40271;48.798;10.178;2022-11-15T08:49:59;15.05;;;9.07;;
54372;SDS011;40271;48.798;10.178;2022-11-15T08:52:25;10.98;;;7.20;;
54372;SDS011;40271;48.798;10.178;2022-11-15T08:54:51;11.43;;;6.40;;
54372;SDS011;40271;48.798;10.178;2022-11-15T08:57:17;8.15;;;4.95;;
54372;SDS011;40271;48.798;10.178;2022-11-15T08:59:43;9.55;;;5.30;;
54372;SDS011;40271;48.798;10.178;2022-11-15T09:02:11;10.48;;;5.10;;
54372;SDS011;40271;48.798;10.178;2022-11-15T09:04:38;8.75;;;5.38;;
54372;SDS011;40271;48.798;10.178;2022-11-15T09:07:04;7.30;;;4.85;;
54372;SDS011;40271;48.798;10.178;2022-11-15T09:09:30;8.77;;;5.10;;
54372;SDS011;40271;48.798;10.178;2022-11-15T09:11:56;8.10;;;4.97;;
54372;SDS011;40271;48.798;10.178;2022-11-15T09:14:22;8.75;;;5.30;;
54372;SDS011;40271;48.798;10.178;2022-11-15T09:16:48;8.27;;;5.53;;
54372;SDS011;40271;48.798;10.178;2022-11-15T09:19:14;7.88;;;5.18;;
54372;SDS011;40271;48.798;10.178;2022-11-15T09:21:40;10.07;;;5.03;;
54372;SDS011;40271;48.798;10.178;2022-11-15T09:24:06;9.23;;;4.68;;
54372;SDS011;40271;48.798;10.178;2022-11-15T09:26:33;8.40;;;4.32;;
54372;SDS011;40271;48.798;10.178;2022-11-15T09:28:59;7.28;;;4.70;;
54372;SDS011;40271;48.798;10.178;2022-11-15T09:31:26;5.43;;;3.60;;
54372;SDS011;40271;48.798;10.178;2022-11-15T09:33:54;8.88;;;4.53;;
54372;SDS011;40271;48.798;10.178;2022-11-15T09:36:20;5.95;;;3.47;;
54372;SDS011;40271;48.798;10.178;2022-11-15T09:38:46;4.55;;;3.50;;
54372;SDS011;40271;48.798;10.178;2022-11-15T09:51:06;4.32;;;2.90;;
54372;SDS011;40271;48.798;10.178;2022-11-15T09:53:40;4.97;;;3.35;;
54372;SDS011;40271;48.798;10.178;2022-11-15T09:56:13;6.57;;;3.13;;
54372;SDS011;40271;48.798;10.178;2022-11-15T09:58:50;4.63;;;2.90;;
54372;SDS011;40271;48.798;10.178;2022-11-15T10:03:59;4.03;;;2.78;;
54372;SDS011;40271;48.798;10.178;2022-11-15T10:06:26;5.20;;;3.22;;
54372;SDS011;40271;48.798;10.178;2022-11-15T10:11:25;4.22;;;2.80;;
54372;SDS011;40271;48.798;10.178;2022-11-15T10:13:52;3.92;;;2.88;;
54372;SDS011;40271;48.798;10.178;2022-11-15T10:16:29;4.78;;;2.50;;
54372;SDS011;40271;48.798;10.178;2022-11-15T10:19:08;4.18;;;2.50;;
54372;SDS011;40271;48.798;10.178;2022-11-15T10:21:55;4.53;;;2.50;;
54372;SDS011;40271;48.798;10.178;2022-11-15T10:26:53;4.90;;;2.75;;
54372;SDS011;40271;48.798;10.178;2022-11-15T10:29:20;4.38;;;2.47;;
54372;SDS011;40271;48.798;10.178;2022-11-15T10:31:46;4.60;;;2.38;;
54372;SDS011;40271;48.798;10.178;2022-11-15T10:37:14;4.65;;;2.40;;
54372;SDS011;40271;48.798;10.178;2022-11-15T10:39:33;3.03;;;2.00;;
54372;SDS011;40271;48.798;10.178;2022-11-15T10:44:44;2.47;;;2.00;;
54372;SDS011;40271;48.798;10.178;2022-11-15T10:47:21;2.22;;;1.83;;
54372;SDS011;40271;48.798;10.178;2022-11-15T10:52:43;3.22;;;2.10;;
54372;SDS011;40271;48.798;10.178;2022-11-15T10:57:37;2.50;;;1.90;;
54372;SDS011;40271;48.798;10.178;2022-11-15T11:02:34;4.35;;;2.25;;
54372;SDS011;40271;48.798;10.178;2022-11-15T11:05:01;3.00;;;2.20;;
54372;SDS011;40271;48.798;10.178;2022-11-15T11:07:32;6.63;;;3.50;;
54372;SDS011;40271;48.798;10.178;2022-11-15T11:12:28;5.35;;;3.20;;
54372;SDS011;40271;48.798;10.178;2022-11-15T11:14:55;6.22;;;3.60;;
54372;SDS011;40271;48.798;10.178;2022-11-15T11:17:23;4.90;;;2.95;;
54372;SDS011;40271;48.798;10.178;2022-11-15T11:19:56;7.32;;;3.47;;
54372;SDS011;40271;48.798;10.178;2022-11-15T11:35:30;2.58;;;2.03;;
54372;SDS011;40271;48.798;10.178;2022-11-15T11:49:10;3.65;;;2.20;;
54372;SDS011;40271;48.798;10.178;2022-11-15T11:51:42;3.25;;;2.05;;
54372;SDS011;40271;48.798;10.178;2022-11-15T11:54:11;5.30;;;1.98;;
54372;SDS011;40271;48.798;10.178;2022-11-15T11:56:39;4.15;;;2.20;;
54372;SDS011;40271;48.798;10.178;2022-11-15T11:59:15;3.50;;;2.40;;
54372;SDS011;40271;48.798;10.178;2022-11-15T12:01:43;4.15;;;2.25;;
54372;SDS011;40271;48.798;10.178;2022-11-15T12:14:52;4.28;;;1.60;;
54372;SDS011;40271;48.798;10.178;2022-11-15T12:17:10;2.63;;;1.80;;
54372;SDS011;40271;48.798;10.178;2022-11-15T12:19:37;3.78;;;2.00;;
54372;SDS011;40271;48.798;10.178;2022-11-15T12:22:10;3.10;;;2.10;;
54372;SDS011;40271;48.798;10.178;2022-11-15T12:24:41;4.05;;;2.08;;
54372;SDS011;40271;48.798;10.178;2022-11-15T12:29:39;2.65;;;2.05;;
54372;SDS011;40271;48.798;10.178;2022-11-15T12:32:29;3.42;;;2.03;;
54372;SDS011;40271;48.798;10.178;2022-11-15T12:34:52;2.30;;;1.40;;
54372;SDS011;40271;48.798;10.178;2022-11-15T12:37:32;3.97;;;2.50;;
54372;SDS011;40271;48.798;10.178;2022-11-15T12:47:50;3.60;;;1.50;;
54372;SDS011;40271;48.798;10.178;2022-11-15T12:50:16;1.83;;;1.50;;
54372;SDS011;40271;48.798;10.178;2022-11-15T12:53:28;2.78;;;1.90;;
54372;SDS011;40271;48.798;10.178;2022-11-15T12:55:29;2.83;;;1.60;;
54372;SDS011;40271;48.798;10.178;2022-11-15T12:57:55;3.58;;;2.05;;
54372;SDS011;40271;48.798;10.178;2022-11-15T13:00:41;2.75;;;1.80;;
54372;SDS011;40271;48.798;10.178;2022-11-15T13:03:22;4.55;;;2.15;;
54372;SDS011;40271;48.798;10.178;2022-11-15T13:05:53;4.07;;;2.13;;
54372;SDS011;40271;48.798;10.178;2022-11-15T13:16:58;3.63;;;1.77;;
54372;SDS011;40271;48.798;10.178;2022-11-15T13:19:24;2.85;;;1.88;;
54372;SDS011;40271;48.798;10.178;2022-11-15T13:21:50;2.20;;;1.75;;
54372;SDS011;40271;48.798;10.178;2022-11-15T13:24:37;3.90;;;1.70;;
54372;SDS011;40271;48.798;10.178;2022-11-15T13:27:24;6.10;;;1.83;;
54372;SDS011;40271;48.798;10.178;2022-11-15T13:29:50;4.00;;;1.38;;
54372;SDS011;40271;48.798;10.178;2022-11-15T13:32:16;5.28;;;2.13;;
54372;SDS011;40271;48.798;10.178;2022-11-15T13:34:48;2.00;;;1.30;;
54372;SDS011;40271;48.798;10.178;2022-11-15T13:39:46;3.10;;;1.75;;
54372;SDS011;40271;48.798;10.178;2022-11-15T13:42:16;3.75;;;1.95;;
54372;SDS011;40271;48.798;10.178;2022-11-15T13:44:55;4.10;;;1.98;;
54372;SDS011;40271;48.798;10.178;2022-11-15T13:47:22;4.43;;;1.80;;
54372;SDS011;40271;48.798;10.178;2022-11-15T13:49:52;3.25;;;1.90;;
54372;SDS011;40271;48.798;10.178;2022-11-15T13:52:18;3.05;;;1.77;;
54372;SDS011;40271;48.798;10.178;2022-11-15T13:54:49;4.57;;;2.00;;
54372;SDS011;40271;48.798;10.178;2022-11-15T13:57:18;2.90;;;1.85;;
54372;SDS011;40271;48.798;10.178;2022-11-15T13:59:47;2.60;;;2.03;;
54372;SDS011;40271;48.798;10.178;2022-11-15T14:02:17;4.32;;;1.83;;
54372;SDS011;40271;48.798;10.178;2022-11-15T14:04:48;5.53;;;2.63;;
54372;SDS011;40271;48.798;10.178;2022-11-15T14:07:18;3.30;;;2.17;;
54372;SDS011;40271;48.798;10.178;2022-11-15T14:09:45;5.53;;;2.15;;
54372;SDS011;40271;48.798;10.178;2022-11-15T14:14:57;8.68;;;4.57;;
54372;SDS011;40271;48.798;10.178;2022-11-15T14:19:56;19.48;;;8.77;;
54372;SDS011;40271;48.798;10.178;2022-11-15T14:22:23;10.80;;;5.07;;
54372;SDS011;40271;48.798;10.178;2022-11-15T14:27:38;5.45;;;3.08;;
54372;SDS011;40271;48.798;10.178;2022-11-15T14:30:04;2.40;;;1.90;;
54372;SDS011;40271;48.798;10.178;2022-11-15T14:32:49;2.83;;;1.67;;
54372;SDS011;40271;48.798;10.178;2022-11-15T14:35:17;2.17;;;1.60;;
54372;SDS011;40271;48.798;10.178;2022-11-15T14:37:43;2.83;;;2.03;;
54372;SDS011;40271;48.798;10.178;2022-11-15T14:40:11;2.90;;;2.05;;
54372;SDS011;40271;48.798;10.178;2022-11-15T14:42:38;4.40;;;2.00;;
54372;SDS011;40271;48.798;10.178;2022-11-15T14:45:09;4.22;;;2.50;;
54372;SDS011;40271;48.798;10.178;2022-11-15T14:47:36;3.13;;;2.00;;
54372;SDS011;40271;48.798;10.178;2022-11-15T14:50:02;3.33;;;2.05;;
54372;SDS011;40271;48.798;10.178;2022-11-15T14:52:29;2.75;;;1.92;;
54372;SDS011;40271;48.798;10.178;2022-11-15T14:54:58;3.97;;;2.38;;
54372;SDS011;40271;48.798;10.178;2022-11-15T14:57:24;3.72;;;2.42;;
54372;SDS011;40271;48.798;10.178;2022-11-15T14:59:50;2.40;;;2.13;;
54372;SDS011;40271;48.798;10.178;2022-11-15T15:04:43;2.15;;;1.85;;
54372;SDS011;40271;48.798;10.178;2022-11-15T15:07:09;3.17;;;2.22;;
54372;SDS011;40271;48.798;10.178;2022-11-15T15:09:35;3.30;;;2.20;;
54372;SDS011;40271;48.798;10.178;2022-11-15T15:12:01;2.50;;;2.25;;
54372;SDS011;40271;48.798;10.178;2022-11-15T15:14:27;2.92;;;2.10;;
54372;SDS011;40271;48.798;10.178;2022-11-15T15:16:53;3.35;;;1.98;;
54372;SDS011;40271;48.798;10.178;2022-11-15T15:19:19;2.72;;;2.30;;
54372;SDS011;40271;48.798;10.178;2022-11-15T15:21:45;3.88;;;2.58;;
54372;SDS011;40271;48.798;10.178;2022-11-15T15:24:14;10.05;;;4.18;;
54372;SDS011;40271;48.798;10.178;2022-11-15T15:26:40;5.30;;;2.80;;
54372;SDS011;40271;48.798;10.178;2022-11-15T15:29:08;5.38;;;3.55;;
54372;SDS011;40271;48.798;10.178;2022-11-15T15:31:34;5.47;;;2.80;;
54372;SDS011;40271;48.798;10.178;2022-11-15T15:34:00;5.95;;;3.00;;
54372;SDS011;40271;48.798;10.178;2022-11-15T15:36:26;5.95;;;3.85;;
54372;SDS011;40271;48.798;10.178;2022-11-15T15:38:52;7.65;;;4.72;;
54372;SDS011;40271;48.798;10.178;2022-11-15T15:41:18;6.63;;;4.28;;
54372;SDS011;40271;48.798;10.178;2022-11-15T15:43:44;6.45;;;3.95;;
54372;SDS011;40271;48.798;10.178;2022-11-15T15:46:11;7.88;;;4.28;;
54372;SDS011;40271;48.798;10.178;2022-11-15T15:48:37;5.82;;;3.85;;
54372;SDS011;40271;48.798;10.178;2022-11-15T15:51:04;12.52;;;6.80;;
54372;SDS011;40271;48.798;10.178;2022-11-15T15:53:30;11.57;;;5.65;;
54372;SDS011;40271;48.798;10.178;2022-11-15T15:55:57;8.45;;;4.75;;
54372;SDS011;40271;48.798;10.178;2022-11-15T15:58:23;10.07;;;5.50;;
54372;SDS011;40271;48.798;10.178;2022-11-15T16:00:49;7.78;;;3.08;;
54372;SDS011;40271;48.798;10.178;2022-11-15T16:03:15;4.72;;;2.67;;
54372;SDS011;40271;48.798;10.178;2022-11-15T16:05:41;4.35;;;2.83;;
54372;SDS011;40271;48.798;10.178;2022-11-15T16:08:16;10.32;;;5.10;;
54372;SDS011;40271;48.798;10.178;2022-11-15T16:10:43;5.40;;;3.55;;
54372;SDS011;40271;48.798;10.178;2022-11-15T16:13:09;4.72;;;2.50;;
54372;SDS011;40271;48.798;10.178;2022-11-15T16:15:35;4.55;;;2.70;;
54372;SDS011;40271;48.798;10.178;2022-11-15T16:18:01;5.30;;;2.95;;
54372;SDS011;40271;48.798;10.178;2022-11-15T16:22:53;7.38;;;4.82;;
54372;SDS011;40271;48.798;10.178;2022-11-15T16:25:19;8.80;;;5.90;;
54372;SDS011;40271;48.798;10.178;2022-11-15T16:27:45;11.38;;;5.65;;
54372;SDS011;40271;48.798;10.178;2022-11-15T16:30:13;9.35;;;5.00;;
54372;SDS011;40271;48.798;10.178;2022-11-15T16:32:40;9.82;;;5.30;;
54372;SDS011;40271;48.798;10.178;2022-11-15T16:35:06;9.50;;;5.72;;
54372;SDS011;40271;48.798;10.178;2022-11-15T16:37:33;8.25;;;5.35;;
54372;SDS011;40271;48.798;10.178;2022-11-15T16:39:59;6.75;;;4.90;;
54372;SDS011;40271;48.798;10.178;2022-11-15T16:42:25;9.75;;;5.00;;
54372;SDS011;40271;48.798;10.178;2022-11-15T16:44:51;8.82;;;4.45;;